Time;durP1;ratioP1;P1;durP2;ratioP2;P2;SDS_P1;SDS_P2;PMS_P1;PMS_P2;Temp;Humidity;BMP_temperature;BMP_pressure;BME280_temperature;BME280_humidity;BME280_pressure;Samples;Min_cycle;Max_cycle;Signal;HPM_P1;HPM_P2
2023/03/08 00:00:09;;;;;;;13.83;6.57;;;;;;;-145.69;88.28;52503.81;5115820;28;20196;-82
2023/03/08 00:02:35;;;;;;;13.53;6.17;;;;;;;-145.69;87.47;52495.88;5114467;28;20652;-82
2023/03/08 00:05:02;;;;;;;16.27;6.77;;;;;;;-145.69;88.26;52468.16;5114785;28;20220;-82
2023/03/08 00:07:29;;;;;;;16.00;5.93;;;;;;;-145.69;87.61;52493.91;5114493;28;20221;-82
2023/03/08 00:09:57;;;;;;;15.17;6.30;;;;;;;-145.69;89.31;52505.78;5114716;28;20205;-83
2023/03/08 00:12:23;;;;;;;18.10;6.40;;;;;;;-145.69;90.33;52495.88;5114582;28;20208;-83
2023/03/08 00:14:50;;;;;;;18.33;6.63;;;;;;;-145.69;90.96;52509.75;5114847;28;20227;-83
2023/03/08 00:17:18;;;;;;;15.83;5.57;;;;;;;-145.69;89.02;52485.97;5114709;28;20197;-83
2023/03/08 00:19:44;;;;;;;15.37;6.67;;;;;;;-145.69;91.46;52519.63;5114591;28;20200;-83
2023/03/08 00:22:11;;;;;;;16.13;6.40;;;;;;;-145.69;90.27;52503.81;5114253;28;20200;-83
2023/03/08 00:24:38;;;;;;;16.20;6.17;;;;;;;-145.69;90.08;52511.72;5114693;28;20220;-83
2023/03/08 00:27:06;;;;;;;16.23;6.90;;;;;;;-145.69;89.46;52507.75;5115095;28;20197;-83
2023/03/08 00:29:32;;;;;;;15.97;6.40;;;;;;;-145.69;91.55;52543.41;5114990;28;20208;-83
2023/03/08 00:31:59;;;;;;;14.73;6.00;;;;;;;-145.69;91.96;52539.44;5116154;28;20204;-82
2023/03/08 00:34:25;;;;;;;17.33;6.27;;;;;;;-145.69;92.34;52470.13;5113962;28;20193;-82
2023/03/08 00:36:52;;;;;;;17.40;6.30;;;;;;;-145.69;91.84;52484.00;5114400;28;20205;-82
2023/03/08 00:39:19;;;;;;;19.97;7.00;;;;;;;-145.69;93.19;52485.97;5114302;28;20559;-81
2023/03/08 00:41:46;;;;;;;15.07;5.80;;;;;;;-145.69;93.77;52487.97;5114362;28;20236;-82
2023/03/08 00:44:13;;;;;;;15.67;6.50;;;;;;;-145.69;97.66;52503.81;5114629;28;20197;-82
2023/03/08 00:46:40;;;;;;;20.30;6.13;;;;;;;-145.69;99.53;52539.44;5114075;28;20200;-82
2023/03/08 00:49:06;;;;;;;14.87;5.90;;;;;;;-145.69;100.00;52480.03;5113430;28;20246;-83
2023/03/08 00:51:33;;;;;;;15.23;6.23;;;;;;;-145.69;100.00;52521.63;5113763;28;20198;-83
2023/03/08 00:53:59;;;;;;;13.60;6.23;;;;;;;-145.69;100.00;52501.81;5113984;28;20204;-82
2023/03/08 00:56:26;;;;;;;12.97;5.60;;;;;;;-145.69;100.00;52485.97;5113165;28;20204;-83
2023/03/08 00:58:52;;;;;;;15.30;6.57;;;;;;;-145.69;100.00;52523.59;5113498;28;20198;-82
2023/03/08 01:01:20;;;;;;;17.07;6.13;;;;;;;-145.69;100.00;52539.44;5113588;28;20197;-82
2023/03/08 01:03:47;;;;;;;14.43;5.70;;;;;;;-145.69;100.00;52525.59;5113358;28;20707;-83
2023/03/08 01:06:15;;;;;;;13.93;6.17;;;;;;;-145.69;100.00;52503.81;5113703;28;20197;-83
2023/03/08 01:08:41;;;;;;;14.90;6.80;;;;;;;-145.69;100.00;52507.75;5114182;28;20687;-83
2023/03/08 01:11:15;;;;;;;19.10;6.23;;;;;;;-145.69;96.69;52503.81;5113836;28;20193;-82
2023/03/08 01:13:41;;;;;;;13.03;6.43;;;;;;;-145.69;97.35;52489.94;5114734;28;20559;-83
2023/03/08 01:16:15;;;;;;;18.67;6.37;;;;;;;-145.69;96.91;52491.91;5114533;28;20193;-83
2023/03/08 01:18:43;;;;;;;14.10;6.13;;;;;;;-145.69;97.49;52515.69;5114104;28;20201;-83
2023/03/08 01:21:10;;;;;;;13.40;5.97;;;;;;;-145.69;95.91;52487.97;5114648;28;20678;-82
2023/03/08 01:23:37;;;;;;;14.87;6.17;;;;;;;-145.69;95.78;52521.63;5114731;28;20644;-81
2023/03/08 01:26:05;;;;;;;18.47;7.10;;;;;;;-145.69;95.85;52491.91;5117744;28;20198;-82
2023/03/08 01:28:32;;;;;;;14.37;6.00;;;;;;;-145.69;95.32;52495.88;5118579;28;20236;-83
2023/03/08 01:31:03;;;;;;;16.40;6.33;;;;;;;-145.69;94.20;52495.88;5118265;28;20208;-82
2023/03/08 01:33:29;;;;;;;15.77;6.73;;;;;;;-145.69;93.24;52487.97;5118427;28;20197;-82
2023/03/08 01:35:57;;;;;;;14.30;6.10;;;;;;;-145.69;94.64;52491.91;5118390;28;20197;-83
2023/03/08 01:38:24;;;;;;;13.73;5.77;;;;;;;-145.69;96.63;52485.97;5117536;28;20205;-82
2023/03/08 01:40:55;;;;;;;11.80;5.63;;;;;;;-145.69;95.37;52489.94;5117695;28;20193;-82
2023/03/08 01:43:24;;;;;;;15.47;6.90;;;;;;;-145.69;96.02;52507.75;5118511;28;20197;-83
2023/03/08 01:46:11;;;;;;;13.70;5.93;;;;;;;-145.69;97.78;52484.00;5117998;28;20194;-83
2023/03/08 01:48:43;;;;;;;14.57;5.87;;;;;;;-145.69;99.89;52491.91;5118138;28;20266;-82
2023/03/08 01:51:15;;;;;;;14.93;6.43;;;;;;;-145.69;99.29;52495.88;5118233;28;20201;-82
2023/03/08 01:53:42;;;;;;;16.37;6.13;;;;;;;-145.69;100.00;52482.00;5117849;28;20579;-83
2023/03/08 01:56:12;;;;;;;19.90;7.30;;;;;;;-145.69;100.00;52487.97;5118002;28;20203;-83
2023/03/08 01:58:41;;;;;;;16.87;5.90;;;;;;;-145.69;100.00;52446.38;5117882;28;20194;-83
2023/03/08 02:01:08;;;;;;;16.53;5.87;;;;;;;-145.69;98.72;52523.59;5118924;28;20197;-82
2023/03/08 02:03:34;;;;;;;14.80;6.50;;;;;;;-145.69;97.39;52509.75;5118790;28;20255;-83
2023/03/08 02:06:04;;;;;;;14.87;5.93;;;;;;;-145.69;96.65;52491.91;5118731;28;20201;-83
2023/03/08 02:08:33;;;;;;;14.60;6.23;;;;;;;-145.69;97.25;52485.97;5118748;28;20225;-83
2023/03/08 02:11:00;;;;;;;16.43;6.67;;;;;;;-145.69;96.63;52537.47;5116581;28;20185;-83
2023/03/08 02:13:28;;;;;;;18.40;6.40;;;;;;;-145.69;98.53;52476.06;5117310;28;20205;-84
2023/03/08 02:15:57;;;;;;;16.33;6.53;;;;;;;-145.69;98.81;52519.63;5125683;28;20189;-84
2023/03/08 02:18:23;;;;;;;21.97;6.87;;;;;;;-145.69;98.43;52489.94;5126921;28;20201;-84
2023/03/08 02:20:50;;;;;;;16.83;7.03;;;;;;;-145.69;99.63;52555.28;5127051;28;20205;-83
2023/03/08 02:23:20;;;;;;;16.13;6.70;;;;;;;-145.69;99.58;52525.59;5126230;28;20623;-84
2023/03/08 02:25:51;;;;;;;17.63;6.10;;;;;;;-145.69;99.82;52489.94;5125431;28;20853;-83
2023/03/08 02:28:19;;;;;;;15.70;6.27;;;;;;;-145.69;99.90;52499.84;5125420;28;20228;-83
2023/03/08 02:30:45;;;;;;;15.07;6.30;;;;;;;-145.69;100.00;52523.59;5125493;28;20203;-83
2023/03/08 02:33:12;;;;;;;18.70;7.27;;;;;;;-145.69;100.00;52511.72;5125728;28;20228;-82
2023/03/08 02:35:41;;;;;;;21.03;7.53;;;;;;;-145.69;100.00;52476.06;5124132;28;20563;-82
2023/03/08 02:38:08;;;;;;;16.97;7.87;;;;;;;-145.69;100.00;52507.75;5124202;28;20579;-82
2023/03/08 02:40:36;;;;;;;19.33;8.60;;;;;;;-145.69;100.00;52517.66;5122805;28;20487;-82
2023/03/08 02:43:02;;;;;;;17.40;7.60;;;;;;;-145.69;100.00;52515.69;5122963;28;20225;-82
2023/03/08 02:45:29;;;;;;;20.10;7.53;;;;;;;-145.69;100.00;52448.34;5123290;28;20281;-82
2023/03/08 02:47:55;;;;;;;17.33;6.97;;;;;;;-145.69;100.00;52537.47;5103436;28;20197;-83
2023/03/08 02:50:23;;;;;;;17.23;6.97;;;;;;;-145.69;100.00;52519.63;5121800;28;20224;-83
2023/03/08 02:52:49;;;;;;;19.07;7.83;;;;;;;-145.69;100.00;52491.91;5120666;28;20197;-83
2023/03/08 02:55:16;;;;;;;20.70;8.00;;;;;;;-145.69;100.00;52541.44;5120177;28;20296;-84
2023/03/08 02:57:44;;;;;;;17.97;7.07;;;;;;;-145.69;100.00;52487.97;5120203;28;20198;-83
2023/03/08 03:00:11;;;;;;;18.07;8.03;;;;;;;-145.69;100.00;52480.03;5119902;28;20670;-83
2023/03/08 03:02:38;;;;;;;15.93;7.57;;;;;;;-145.69;100.00;52491.91;5119826;28;20201;-83
2023/03/08 03:05:09;;;;;;;16.83;6.43;;;;;;;-145.69;100.00;52482.00;5099130;28;20198;-83
2023/03/08 03:07:36;;;;;;;19.37;7.27;;;;;;;-145.69;100.00;52484.00;5098997;28;20198;-83
2023/03/08 03:10:03;;;;;;;17.77;7.20;;;;;;;-145.69;100.00;52511.72;5098870;28;20230;-83
2023/03/08 03:12:30;;;;;;;21.67;8.23;;;;;;;-145.69;100.00;52505.78;5105547;28;20663;-83
2023/03/08 03:14:58;;;;;;;14.90;6.80;;;;;;;-145.69;100.00;52487.97;5118862;28;20227;-83
2023/03/08 03:17:25;;;;;;;17.87;7.67;;;;;;;-145.69;100.00;52464.19;5118895;28;20212;-83
2023/03/08 03:19:51;;;;;;;15.70;6.80;;;;;;;-145.69;100.00;52529.53;5118577;28;20204;-83
2023/03/08 03:22:18;;;;;;;17.00;7.57;;;;;;;-145.69;100.00;52527.56;5118748;28;20614;-83
2023/03/08 03:24:44;;;;;;;17.77;8.27;;;;;;;-145.69;100.00;52517.66;5118878;28;20293;-83
2023/03/08 03:27:11;;;;;;;20.83;7.83;;;;;;;-145.69;100.00;52535.47;5118420;28;20197;-83
2023/03/08 03:29:37;;;;;;;22.93;7.90;;;;;;;-145.69;100.00;52533.50;5118264;28;20229;-84
2023/03/08 03:32:06;;;;;;;16.43;6.47;;;;;;;-145.69;100.00;52519.63;5117664;28;20567;-84
2023/03/08 03:34:33;;;;;;;19.87;7.63;;;;;;;-145.69;100.00;52493.91;5117429;28;20198;-84
2023/03/08 03:36:59;;;;;;;17.70;7.27;;;;;;;-145.69;100.00;52499.84;5117579;28;20189;-82
2023/03/08 03:39:26;;;;;;;18.13;7.03;;;;;;;-145.69;100.00;52519.63;5117459;28;20201;-83
2023/03/08 03:41:52;;;;;;;18.33;7.63;;;;;;;-145.69;100.00;52543.41;5116888;28;20723;-83
2023/03/08 03:44:19;;;;;;;18.53;7.83;;;;;;;-145.69;100.00;52529.53;5117651;28;20718;-82
2023/03/08 03:46:45;;;;;;;20.30;7.43;;;;;;;-145.69;99.39;52523.59;5117372;28;20556;-81
2023/03/08 03:49:13;;;;;;;18.60;7.60;;;;;;;-145.69;98.44;52476.06;5116268;28;20213;-82
2023/03/08 03:51:39;;;;;;;20.37;8.40;;;;;;;-145.69;98.67;52513.69;5117483;28;20647;-82
2023/03/08 03:54:06;;;;;;;17.73;8.57;;;;;;;-145.69;99.51;52499.84;5116913;28;20198;-83
2023/03/08 03:56:32;;;;;;;17.93;7.67;;;;;;;-145.69;99.22;52460.22;5116638;28;20212;-83
2023/03/08 03:58:59;;;;;;;16.53;7.17;;;;;;;-145.69;99.73;52499.84;5116487;28;20293;-82
2023/03/08 04:01:28;;;;;;;18.97;7.50;;;;;;;-145.69;98.72;52507.75;5116699;28;20201;-82
2023/03/08 04:03:55;;;;;;;17.93;8.10;;;;;;;-145.69;96.76;52509.75;5117456;28;20203;-83
2023/03/08 04:06:25;;;;;;;19.77;7.20;;;;;;;-145.69;97.84;52495.88;5116821;28;20204;-83
2023/03/08 04:08:54;;;;;;;22.80;7.77;;;;;;;-145.69;98.45;52466.16;5116313;28;20224;-83
2023/03/08 04:11:23;;;;;;;21.67;7.23;;;;;;;-145.69;97.97;52476.06;5112249;28;20663;-83
2023/03/08 04:13:50;;;;;;;16.90;7.27;;;;;;;-145.69;96.84;52480.03;5116306;28;20203;-83
2023/03/08 04:16:18;;;;;;;16.77;7.80;;;;;;;-145.69;98.21;52474.09;5115553;28;20197;-82
2023/03/08 04:18:45;;;;;;;19.23;8.10;;;;;;;-145.69;97.46;52503.81;5116173;28;20688;-83
2023/03/08 04:21:12;;;;;;;20.57;8.53;;;;;;;-145.69;96.91;52493.91;5115688;28;20812;-83
2023/03/08 04:23:40;;;;;;;20.20;8.33;;;;;;;-145.69;98.46;52478.06;5115397;28;20209;-83
2023/03/08 04:26:07;;;;;;;21.70;9.33;;;;;;;-145.69;98.29;52476.06;5115897;28;20194;-83
2023/03/08 04:28:34;;;;;;;19.60;9.30;;;;;;;-145.69;100.00;52531.53;5115619;28;20201;-83
2023/03/08 04:31:11;;;;;;;24.23;8.43;;;;;;;-145.69;100.00;52499.84;5115664;28;20651;-83
2023/03/08 04:33:38;;;;;;;20.27;8.90;;;;;;;-145.69;100.00;52511.72;5117017;28;20220;-83
2023/03/08 04:36:05;;;;;;;22.47;9.60;;;;;;;-145.69;100.00;52503.81;5116792;28;20233;-83
2023/03/08 04:38:32;;;;;;;24.93;10.17;;;;;;;-145.69;100.00;52489.94;5115998;28;20194;-83
2023/03/08 04:41:04;;;;;;;23.67;10.00;;;;;;;-145.69;100.00;52482.00;5115166;28;20197;-83
2023/03/08 04:43:31;;;;;;;27.67;9.37;;;;;;;-145.69;100.00;52478.06;5115965;28;20219;-83
2023/03/08 04:45:57;;;;;;;30.03;10.57;;;;;;;-145.69;100.00;52531.53;5115744;28;20284;-83
2023/03/08 04:48:24;;;;;;;26.63;10.90;;;;;;;-145.69;100.00;52495.88;5115436;28;20201;-83
2023/03/08 04:50:52;;;;;;;24.50;10.37;;;;;;;-145.69;100.00;52448.34;5115302;28;20193;-82
2023/03/08 04:53:19;;;;;;;24.47;10.10;;;;;;;-145.69;100.00;52487.97;5115482;28;20194;-83
2023/03/08 04:55:46;;;;;;;22.27;9.93;;;;;;;-145.69;100.00;52484.00;5115852;28;20197;-83
2023/03/08 04:58:13;;;;;;;33.07;11.30;;;;;;;-145.69;100.00;52484.00;5115552;28;20199;-82
2023/03/08 05:00:40;;;;;;;25.83;11.07;;;;;;;-145.69;100.00;52501.81;5118343;28;20284;-84
2023/03/08 05:03:07;;;;;;;26.50;10.63;;;;;;;-145.69;100.00;52515.69;5121389;28;20212;-83
2023/03/08 05:05:33;;;;;;;25.83;10.17;;;;;;;-145.69;100.00;52487.97;5121315;28;20768;-83
2023/03/08 05:08:02;;;;;;;22.63;10.37;;;;;;;-145.69;100.00;52507.75;5120971;28;20207;-83
2023/03/08 05:10:29;;;;;;;27.23;11.03;;;;;;;-145.69;100.00;52470.13;5119193;28;20239;-84
2023/03/08 05:12:56;;;;;;;22.53;10.30;;;;;;;-145.69;100.00;52482.00;5120861;28;20198;-82
2023/03/08 05:15:24;;;;;;;26.87;11.23;;;;;;;-145.69;100.00;52507.75;5120642;28;20197;-83
2023/03/08 05:17:51;;;;;;;23.97;10.53;;;;;;;-145.69;100.00;52456.28;5119716;28;20202;-82
2023/03/08 05:20:18;;;;;;;23.10;10.23;;;;;;;-145.69;100.00;52499.84;5119048;28;20296;-82
2023/03/08 05:22:44;;;;;;;25.77;10.20;;;;;;;-145.69;100.00;52499.84;5117832;28;20193;-82
2023/03/08 05:25:11;;;;;;;25.77;11.07;;;;;;;-145.69;100.00;52487.97;5117988;28;20212;-82
2023/03/08 05:27:37;;;;;;;23.10;10.83;;;;;;;-145.69;100.00;52466.16;5117696;28;20209;-82
2023/03/08 05:30:05;;;;;;;24.90;10.30;;;;;;;-145.69;100.00;52503.81;5117846;28;20229;-82
2023/03/08 05:32:32;;;;;;;26.87;10.83;;;;;;;-145.69;100.00;52480.03;5118039;28;20205;-83
2023/03/08 05:34:59;;;;;;;26.57;10.23;;;;;;;-145.69;100.00;52499.84;5117506;28;20194;-82
2023/03/08 05:37:25;;;;;;;23.93;9.83;;;;;;;-145.69;100.00;52442.41;5118118;28;20198;-82
2023/03/08 05:39:52;;;;;;;23.70;9.97;;;;;;;-145.69;100.00;52450.31;5118641;28;20201;-82
2023/03/08 05:42:19;;;;;;;24.77;9.77;;;;;;;-145.69;100.00;52501.81;5117609;28;20221;-83
2023/03/08 05:44:46;;;;;;;23.30;8.93;;;;;;;-145.69;100.00;52515.69;5118403;28;20283;-82
2023/03/08 05:47:13;;;;;;;24.27;10.17;;;;;;;-145.69;100.00;52489.94;5118278;28;20193;-83
2023/03/08 05:49:40;;;;;;;21.73;8.40;;;;;;;-145.69;100.00;52515.69;5120089;28;20217;-83
2023/03/08 05:52:07;;;;;;;20.47;9.83;;;;;;;-145.69;100.00;52484.00;5120421;28;20201;-84
2023/03/08 05:54:33;;;;;;;24.63;10.00;;;;;;;-145.69;100.00;52515.69;5120551;28;20198;-83
2023/03/08 05:57:00;;;;;;;25.37;9.67;;;;;;;-145.69;100.00;52468.16;5119811;28;20206;-83
2023/03/08 05:59:27;;;;;;;20.93;8.87;;;;;;;-145.69;100.00;52499.84;5118483;28;20197;-82
2023/03/08 06:01:53;;;;;;;24.20;9.40;;;;;;;-145.69;100.00;52501.81;5117258;28;20193;-82
2023/03/08 06:04:20;;;;;;;24.00;9.57;;;;;;;-145.69;100.00;52519.63;5117611;28;20691;-79
2023/03/08 06:06:48;;;;;;;28.23;10.57;;;;;;;-145.69;100.00;52484.00;5115686;28;20284;-83
2023/03/08 06:09:14;;;;;;;19.93;8.60;;;;;;;-145.69;100.00;52503.81;5098260;28;20218;-83
2023/03/08 06:11:41;;;;;;;20.87;8.37;;;;;;;-145.69;100.00;52501.81;5098019;28;20198;-82
2023/03/08 06:14:07;;;;;;;18.20;9.07;;;;;;;-145.69;100.00;52525.59;5117865;28;20204;-82
2023/03/08 06:16:34;;;;;;;21.10;8.00;;;;;;;-145.69;100.00;52519.63;5117613;28;20201;-82
2023/03/08 06:19:01;;;;;;;17.60;7.93;;;;;;;-145.69;100.00;52507.75;5117308;28;20288;-82
2023/03/08 06:21:28;;;;;;;15.73;7.47;;;;;;;-145.69;100.00;52476.06;5117227;28;20220;-83
2023/03/08 06:23:55;;;;;;;17.00;7.23;;;;;;;-145.69;100.00;52480.03;5117690;28;20676;-83
2023/03/08 06:26:22;;;;;;;19.57;7.53;;;;;;;-145.69;100.00;52517.66;5117762;28;20201;-82
2023/03/08 06:28:48;;;;;;;16.53;6.77;;;;;;;-145.69;100.00;52499.84;5117657;28;20196;-83
2023/03/08 06:31:17;;;;;;;15.17;6.80;;;;;;;-145.69;100.00;52484.00;5117697;28;20221;-83
2023/03/08 06:33:43;;;;;;;22.27;8.60;;;;;;;-145.69;100.00;52531.53;5117708;28;20392;-83
2023/03/08 06:36:12;;;;;;;19.57;8.13;;;;;;;-145.69;100.00;52466.16;5118044;28;20189;-83
2023/03/08 06:38:40;;;;;;;16.87;8.00;;;;;;;-145.69;100.00;52507.75;5117514;28;20193;-83
2023/03/08 06:41:09;;;;;;;20.13;7.03;;;;;;;-145.69;100.00;52491.91;5116751;28;20252;-82
2023/03/08 06:43:36;;;;;;;14.77;7.37;;;;;;;-145.69;100.00;52495.88;5117100;28;20274;-83
2023/03/08 06:46:04;;;;;;;15.97;7.23;;;;;;;-145.69;100.00;52509.75;5116952;28;20279;-82
2023/03/08 06:48:30;;;;;;;18.90;7.83;;;;;;;-145.69;100.00;52503.81;5117277;28;20201;-83
2023/03/08 06:50:57;;;;;;;15.27;6.27;;;;;;;-145.69;100.00;52485.97;5117465;28;20236;-83
2023/03/08 06:53:23;;;;;;;14.40;6.53;;;;;;;-145.69;100.00;52476.06;5117323;28;20708;-82
2023/03/08 06:55:50;;;;;;;19.97;8.37;;;;;;;-145.69;100.00;52499.84;5117358;28;20201;-82
2023/03/08 06:58:17;;;;;;;14.97;6.53;;;;;;;-145.69;100.00;52470.13;5116783;28;20292;-82
2023/03/08 07:00:44;;;;;;;15.57;6.80;;;;;;;-145.69;100.00;52472.13;5116831;28;20201;-82
2023/03/08 07:03:11;;;;;;;15.63;6.90;;;;;;;-145.69;100.00;52472.13;5116853;28;20213;-82
2023/03/08 07:05:38;;;;;;;15.10;6.40;;;;;;;-145.69;100.00;52444.38;5116921;28;20593;-82
2023/03/08 07:08:05;;;;;;;17.47;6.17;;;;;;;-145.69;100.00;52535.47;5117292;28;20193;-82
2023/03/08 07:10:32;;;;;;;12.27;5.70;;;;;;;-145.69;100.00;52476.06;5117020;28;20229;-83
2023/03/08 07:12:59;;;;;;;11.50;5.73;;;;;;;-145.69;100.00;52460.22;5116927;28;20196;-82
2023/03/08 07:15:27;;;;;;;13.80;5.43;;;;;;;-145.69;100.00;52456.28;5096498;28;20190;-83
2023/03/08 07:17:55;;;;;;;13.33;5.97;;;;;;;-145.69;100.00;52472.13;5096388;28;20206;-82
2023/03/08 07:20:24;;;;;;;12.93;5.53;;;;;;;-145.69;100.00;52499.84;5096469;28;20217;-83
2023/03/08 07:22:51;;;;;;;9.17;4.80;;;;;;;-145.69;100.00;52491.91;5115781;28;20194;-83
2023/03/08 07:25:19;;;;;;;12.60;5.10;;;;;;;-145.69;100.00;52466.16;5116754;28;20200;-82
2023/03/08 07:27:46;;;;;;;10.47;4.63;;;;;;;-145.69;100.00;52485.97;5116830;28;20189;-83
2023/03/08 07:30:14;;;;;;;12.30;5.47;;;;;;;-145.69;100.00;52460.22;5116514;28;20221;-83
2023/03/08 07:32:43;;;;;;;11.00;4.67;;;;;;;-145.69;100.00;52466.16;5116593;28;20276;-83
2023/03/08 07:35:11;;;;;;;9.50;4.63;;;;;;;-145.69;99.86;52491.91;5116894;28;20590;-84
2023/03/08 07:37:37;;;;;;;10.93;5.10;;;;;;;-145.69;98.37;52468.16;5118730;28;20202;-83
2023/03/08 07:40:05;;;;;;;10.07;4.10;;;;;;;-145.69;98.85;52444.38;5118200;28;20686;-83
2023/03/08 07:42:32;;;;;;;9.57;4.33;;;;;;;-145.69;97.34;52487.97;5117628;28;20225;-83
2023/03/08 07:44:58;;;;;;;9.03;3.97;;;;;;;-145.69;96.95;52464.19;5117014;28;20197;-83
2023/03/08 07:47:25;;;;;;;8.83;4.13;;;;;;;-145.69;94.38;52480.03;5116751;28;20777;-83
2023/03/08 07:49:53;;;;;;;9.73;4.60;;;;;;;-145.69;94.62;52476.06;5116066;28;20227;-83
2023/03/08 07:52:19;;;;;;;8.97;4.27;;;;;;;-145.69;97.58;52485.97;5114900;28;20190;-84
2023/03/08 07:54:46;;;;;;;10.00;4.50;;;;;;;-145.69;95.32;52416.66;5116357;28;20200;-82
2023/03/08 07:57:13;;;;;;;11.50;4.20;;;;;;;-145.69;94.18;52444.38;5117446;28;20232;-83
2023/03/08 07:59:40;;;;;;;9.80;4.20;;;;;;;-145.69;94.23;52470.13;5117878;28;20201;-82
2023/03/08 08:02:11;;;;;;;8.30;4.23;;;;;;;-145.69;97.07;52476.06;5116605;28;20193;-82
2023/03/08 08:04:38;;;;;;;9.43;3.80;;;;;;;-145.69;93.75;52487.97;5117142;28;20701;-82
2023/03/08 08:07:05;;;;;;;9.33;4.20;;;;;;;-145.69;95.39;52464.19;5116297;28;20220;-82
2023/03/08 08:09:32;;;;;;;10.77;4.57;;;;;;;-145.69;97.04;52452.31;5116393;28;20220;-82
2023/03/08 08:11:59;;;;;;;8.47;4.23;;;;;;;-145.69;94.84;52450.31;5116209;28;20569;-82
2023/03/08 08:14:25;;;;;;;13.90;5.70;;;;;;;-145.69;94.26;52448.34;5115128;28;20198;-82
2023/03/08 08:16:52;;;;;;;11.20;6.60;;;;;;;-145.69;94.47;52444.38;5115707;28;20230;-83
2023/03/08 08:19:18;;;;;;;11.87;6.60;;;;;;;-145.69;96.96;52462.22;5116154;28;20224;-81
2023/03/08 08:21:45;;;;;;;9.77;4.67;;;;;;;-145.69;93.80;52456.28;5115228;28;20776;-82
2023/03/08 08:24:14;;;;;;;9.43;4.93;;;;;;;-145.69;92.47;52428.53;5115198;28;20193;-83
2023/03/08 08:26:40;;;;;;;13.63;4.60;;;;;;;-145.69;90.75;52480.03;5116231;28;20205;-82
2023/03/08 08:29:07;;;;;;;7.53;3.58;;;;;;;-145.69;94.23;52468.16;5116012;28;20522;-83
2023/03/08 08:31:34;;;;;;;7.47;3.27;;;;;;;-145.69;93.85;52452.31;5115781;28;20720;-81
2023/03/08 08:34:01;;;;;;;5.67;2.90;;;;;;;-145.69;92.71;52499.84;5112206;28;20208;-82
2023/03/08 08:36:28;;;;;;;6.17;2.33;;;;;;;-145.69;94.15;52412.69;5117376;28;20281;-83
2023/03/08 08:38:55;;;;;;;10.63;2.20;;;;;;;-145.69;93.70;52448.34;5118571;28;20204;-82
2023/03/08 08:41:23;;;;;;;4.83;1.93;;;;;;;-145.69;92.39;52452.31;5118904;28;20235;-83
2023/03/08 08:43:50;;;;;;;3.30;1.97;;;;;;;-145.69;91.87;52440.44;5117311;27;20193;-83
2023/03/08 08:46:17;;;;;;;3.50;2.03;;;;;;;-145.69;93.65;52458.25;5117307;28;20200;-82
2023/03/08 08:48:44;;;;;;;3.00;1.83;;;;;;;-145.69;90.44;52454.28;5117027;28;20201;-82
2023/03/08 08:51:13;;;;;;;3.90;1.70;;;;;;;-145.69;90.30;52428.53;5116983;28;20702;-82
2023/03/08 08:53:39;;;;;;;5.47;2.43;;;;;;;-145.69;89.84;52420.63;5117757;28;20563;-82
2023/03/08 08:56:14;;;;;;;8.37;2.93;;;;;;;-145.69;91.03;52448.34;5117614;28;20197;-82
2023/03/08 08:58:42;;;;;;;4.53;1.83;;;;;;;-145.69;90.01;52442.41;5130649;27;20196;-82
2023/03/08 09:01:14;;;;;;;3.27;1.80;;;;;;;-145.69;89.90;52460.22;5137743;27;20197;-82
2023/03/08 09:03:40;;;;;;;4.43;2.07;;;;;;;-145.69;91.99;52438.44;5125115;27;20239;-81
2023/03/08 09:06:07;;;;;;;2.60;1.80;;;;;;;-145.69;95.86;52428.53;5116766;28;20200;-82
2023/03/08 09:08:33;;;;;;;10.57;2.10;;;;;;;-145.69;95.02;52432.50;5117218;27;20202;-84
2023/03/08 09:11:03;;;;;;;3.63;1.90;;;;;;;-145.69;99.07;52452.31;5118241;28;20725;-83
2023/03/08 09:13:30;;;;;;;3.80;2.17;;;;;;;-145.69;100.00;52400.81;5116871;27;20555;-83
2023/03/08 09:15:58;;;;;;;4.47;2.45;;;;;;;-145.69;100.00;52444.38;5116317;28;20448;-81
2023/03/08 09:18:25;;;;;;;4.00;1.87;;;;;;;-145.69;100.00;52432.50;5117442;28;20295;-81
2023/03/08 09:20:51;;;;;;;3.40;2.30;;;;;;;-145.69;100.00;52470.13;5117226;28;20197;-81
2023/03/08 09:23:18;;;;;;;4.03;1.83;;;;;;;-145.69;100.00;52452.31;5124664;27;20208;-81
2023/03/08 09:25:45;;;;;;;4.03;2.00;;;;;;;-145.69;100.00;52428.53;5138436;27;20287;-81
2023/03/08 09:28:11;;;;;;;3.17;2.10;;;;;;;-145.69;100.00;52428.53;5131397;27;20285;-82
2023/03/08 09:30:38;;;;;;;3.63;2.07;;;;;;;-145.69;100.00;52436.47;5117079;28;20221;-82
2023/03/08 09:33:06;;;;;;;4.40;2.27;;;;;;;-145.69;100.00;52428.53;5116402;28;20197;-83
2023/03/08 09:35:32;;;;;;;2.47;1.93;;;;;;;-145.69;100.00;52418.63;5116979;28;20250;-83
2023/03/08 09:38:00;;;;;;;4.03;1.83;;;;;;;-145.69;100.00;52400.81;5119454;27;20193;-83
2023/03/08 09:40:27;;;;;;;2.57;1.50;;;;;;;-145.69;100.00;52440.44;5117041;28;20289;-84
2023/03/08 09:43:00;;;;;;;2.57;1.60;;;;;;;-145.69;100.00;52462.22;5115786;27;20230;-83
2023/03/08 09:45:28;;;;;;;6.70;1.93;;;;;;;-145.69;100.00;52406.75;5116069;28;20193;-83
2023/03/08 09:48:03;;;;;;;2.53;1.60;;;;;;;-145.69;100.00;52440.44;5116512;28;20192;-82
2023/03/08 09:50:43;;;;;;;2.73;1.70;;;;;;;-145.69;100.00;52442.41;5115772;28;20228;-83
2023/03/08 09:53:17;;;;;;;3.67;2.03;;;;;;;-145.69;100.00;52424.59;5116538;27;20201;-83
2023/03/08 09:55:49;;;;;;;2.80;1.90;;;;;;;-145.69;100.00;52442.41;5116455;28;20200;-79
2023/03/08 09:58:24;;;;;;;3.00;1.97;;;;;;;-145.69;100.00;52456.28;5117053;28;20200;-80
2023/03/08 10:00:51;;;;;;;3.67;1.93;;;;;;;-145.69;100.00;52420.63;5116906;28;20196;-83
2023/03/08 10:03:33;;;;;;;2.73;1.70;;;;;;;-145.69;100.00;52458.25;5115989;28;20205;-82
2023/03/08 10:06:10;;;;;;;3.70;2.10;;;;;;;-145.69;100.00;52412.69;5116344;28;20193;-81
2023/03/08 10:08:44;;;;;;;4.67;2.10;;;;;;;-145.69;100.00;52452.31;5117174;28;20201;-83
2023/03/08 10:11:18;;;;;;;2.93;1.90;;;;;;;-145.69;100.00;52448.34;5118628;28;20227;-82
2023/03/08 10:13:48;;;;;;;3.00;1.90;;;;;;;-145.69;100.00;52442.41;5104888;28;20556;-82
2023/03/08 10:16:21;;;;;;;2.63;1.87;;;;;;;-145.69;100.00;52416.66;5098022;28;20673;-83
2023/03/08 10:18:52;;;;;;;3.77;1.80;;;;;;;-145.69;100.00;52460.22;5114789;28;20200;-82
2023/03/08 10:21:22;;;;;;;3.13;1.70;;;;;;;-145.69;100.00;52440.44;5119404;28;20201;-82
2023/03/08 10:24:01;;;;;;;4.90;2.00;;;;;;;-145.69;100.00;52450.31;5120108;28;20194;-83
2023/03/08 10:26:28;;;;;;;3.23;1.83;;;;;;;-145.69;100.00;52428.53;5118149;28;20197;-83
2023/03/08 10:28:55;;;;;;;3.87;1.87;;;;;;;-145.69;100.00;52478.06;5117081;28;20644;-82
2023/03/08 10:31:24;;;;;;;3.00;1.50;;;;;;;-145.69;100.00;52426.56;5116773;28;20232;-83
2023/03/08 10:33:57;;;;;;;3.70;1.83;;;;;;;-145.69;100.00;52474.09;5116600;28;20201;-82
2023/03/08 10:36:25;;;;;;;1.57;1.17;;;;;;;-145.69;100.00;52442.41;5117554;28;20232;-82
2023/03/08 10:39:01;;;;;;;4.87;1.60;;;;;;;-145.69;100.00;52422.59;5115595;28;20193;-83
2023/03/08 10:41:31;;;;;;;2.50;1.10;;;;;;;-145.69;100.00;52416.66;5116616;28;20658;-82
2023/03/08 10:43:58;;;;;;;1.93;0.90;;;;;;;-145.69;100.00;52466.16;5115400;28;20217;-84
2023/03/08 10:46:27;;;;;;;2.33;1.30;;;;;;;-145.69;100.00;52458.25;5115344;28;20206;-84
2023/03/08 10:48:53;;;;;;;1.10;0.90;;;;;;;-145.69;100.00;52454.28;5114807;28;20651;-83
2023/03/08 10:51:22;;;;;;;1.13;0.80;;;;;;;-145.69;100.00;52452.31;5114901;28;20221;-82
2023/03/08 10:53:57;;;;;;;0.73;0.57;;;;;;;-145.69;100.00;52422.59;5114650;28;20205;-83
2023/03/08 10:56:27;;;;;;;1.10;1.00;;;;;;;-145.69;100.00;52412.69;5114537;28;20300;-83
2023/03/08 10:58:58;;;;;;;2.33;0.97;;;;;;;-145.69;100.00;52470.13;5114200;28;20204;-82
2023/03/08 11:01:26;;;;;;;0.80;0.70;;;;;;;-145.69;100.00;52460.22;5114829;28;20210;-84
2023/03/08 11:04:01;;;;;;;1.20;1.00;;;;;;;-145.69;100.00;52438.44;5114437;28;20198;-84
2023/03/08 11:06:28;;;;;;;3.13;1.40;;;;;;;-145.69;100.00;52430.53;5094108;28;20193;-83
2023/03/08 11:08:58;;;;;;;0.63;0.63;;;;;;;-145.69;100.00;52452.31;5101152;28;20204;-82